sensor_id;sensor_type;location;lat;lon;timestamp;P1;durP1;ratioP1;P2;durP2;ratioP2
69401;SDS011;56589;51.992;5.924;2023-11-21T00:01:21;30.73;;;12.85;;
69401;SDS011;56589;51.992;5.924;2023-11-21T00:03:47;30.63;;;13.23;;
69401;SDS011;56589;51.992;5.924;2023-11-21T00:06:12;29.08;;;13.75;;
69401;SDS011;56589;51.992;5.924;2023-11-21T00:08:38;26.17;;;12.77;;
69401;SDS011;56589;51.992;5.924;2023-11-21T00:11:04;31.08;;;13.20;;
69401;SDS011;56589;51.992;5.924;2023-11-21T00:13:30;29.42;;;12.55;;
69401;SDS011;56589;51.992;5.924;2023-11-21T00:15:56;27.67;;;13.20;;
69401;SDS011;56589;51.992;5.924;2023-11-21T00:18:24;26.92;;;13.73;;
69401;SDS011;56589;51.992;5.924;2023-11-21T00:20:50;29.98;;;13.80;;
69401;SDS011;56589;51.992;5.924;2023-11-21T00:23:16;31.48;;;13.73;;
69401;SDS011;56589;51.992;5.924;2023-11-21T00:25:42;30.92;;;13.05;;
69401;SDS011;56589;51.992;5.924;2023-11-21T00:28:07;27.88;;;14.25;;
69401;SDS011;56589;51.992;5.924;2023-11-21T00:30:33;24.27;;;13.38;;
69401;SDS011;56589;51.992;5.924;2023-11-21T00:32:59;28.05;;;14.13;;
69401;SDS011;56589;51.992;5.924;2023-11-21T00:35:27;25.88;;;12.40;;
69401;SDS011;56589;51.992;5.924;2023-11-21T00:37:53;27.33;;;14.13;;
69401;SDS011;56589;51.992;5.924;2023-11-21T00:40:19;26.33;;;13.35;;
69401;SDS011;56589;51.992;5.924;2023-11-21T00:42:44;33.38;;;14.80;;
69401;SDS011;56589;51.992;5.924;2023-11-21T00:45:10;30.45;;;14.07;;
69401;SDS011;56589;51.992;5.924;2023-11-21T00:47:36;31.88;;;13.32;;
69401;SDS011;56589;51.992;5.924;2023-11-21T00:50:02;27.27;;;13.35;;
69401;SDS011;56589;51.992;5.924;2023-11-21T00:52:31;34.50;;;12.27;;
69401;SDS011;56589;51.992;5.924;2023-11-21T00:54:57;28.52;;;13.50;;
69401;SDS011;56589;51.992;5.924;2023-11-21T00:57:23;28.98;;;13.30;;
69401;SDS011;56589;51.992;5.924;2023-11-21T00:59:48;28.42;;;13.95;;
69401;SDS011;56589;51.992;5.924;2023-11-21T01:02:14;29.13;;;13.15;;
69401;SDS011;56589;51.992;5.924;2023-11-21T01:04:40;30.00;;;14.05;;
69401;SDS011;56589;51.992;5.924;2023-11-21T01:07:06;26.33;;;13.60;;
69401;SDS011;56589;51.992;5.924;2023-11-21T01:09:34;32.35;;;13.43;;
69401;SDS011;56589;51.992;5.924;2023-11-21T01:12:00;28.05;;;13.45;;
69401;SDS011;56589;51.992;5.924;2023-11-21T01:14:26;35.22;;;14.95;;
69401;SDS011;56589;51.992;5.924;2023-11-21T01:16:52;28.30;;;13.25;;
69401;SDS011;56589;51.992;5.924;2023-11-21T01:19:18;30.85;;;13.45;;
69401;SDS011;56589;51.992;5.924;2023-11-21T01:21:44;29.45;;;14.50;;
69401;SDS011;56589;51.992;5.924;2023-11-21T01:24:09;29.35;;;13.02;;
69401;SDS011;56589;51.992;5.924;2023-11-21T01:26:38;25.38;;;12.57;;
69401;SDS011;56589;51.992;5.924;2023-11-21T01:29:04;30.13;;;12.77;;
69401;SDS011;56589;51.992;5.924;2023-11-21T01:31:29;27.75;;;13.07;;
69401;SDS011;56589;51.992;5.924;2023-11-21T01:33:55;24.58;;;13.20;;
69401;SDS011;56589;51.992;5.924;2023-11-21T01:36:21;30.45;;;13.80;;
69401;SDS011;56589;51.992;5.924;2023-11-21T01:38:47;29.45;;;13.50;;
69401;SDS011;56589;51.992;5.924;2023-11-21T01:41:13;30.27;;;13.45;;
69401;SDS011;56589;51.992;5.924;2023-11-21T01:43:41;29.17;;;12.93;;
69401;SDS011;56589;51.992;5.924;2023-11-21T01:46:07;23.45;;;13.00;;
69401;SDS011;56589;51.992;5.924;2023-11-21T01:48:34;27.60;;;13.23;;
69401;SDS011;56589;51.992;5.924;2023-11-21T01:51:00;27.55;;;13.32;;
69401;SDS011;56589;51.992;5.924;2023-11-21T01:53:27;31.92;;;12.93;;
69401;SDS011;56589;51.992;5.924;2023-11-21T01:55:53;27.48;;;12.55;;
69401;SDS011;56589;51.992;5.924;2023-11-21T01:58:21;31.23;;;13.15;;
69401;SDS011;56589;51.992;5.924;2023-11-21T02:00:50;28.08;;;13.40;;
69401;SDS011;56589;51.992;5.924;2023-11-21T02:03:16;27.65;;;12.77;;
69401;SDS011;56589;51.992;5.924;2023-11-21T02:05:42;28.98;;;12.70;;
69401;SDS011;56589;51.992;5.924;2023-11-21T02:08:08;29.45;;;13.52;;
69401;SDS011;56589;51.992;5.924;2023-11-21T02:10:33;31.20;;;14.63;;
69401;SDS011;56589;51.992;5.924;2023-11-21T02:12:59;27.83;;;13.13;;
69401;SDS011;56589;51.992;5.924;2023-11-21T02:15:25;35.55;;;14.85;;
69401;SDS011;56589;51.992;5.924;2023-11-21T02:17:53;33.97;;;14.48;;
69401;SDS011;56589;51.992;5.924;2023-11-21T02:20:20;29.65;;;13.55;;
69401;SDS011;56589;51.992;5.924;2023-11-21T02:22:51;31.45;;;13.48;;
69401;SDS011;56589;51.992;5.924;2023-11-21T02:25:18;32.65;;;13.65;;
69401;SDS011;56589;51.992;5.924;2023-11-21T02:27:44;36.42;;;15.20;;
69401;SDS011;56589;51.992;5.924;2023-11-21T02:30:10;35.30;;;14.88;;
69401;SDS011;56589;51.992;5.924;2023-11-21T02:32:37;37.72;;;15.27;;
69401;SDS011;56589;51.992;5.924;2023-11-21T02:35:03;34.65;;;15.77;;
69401;SDS011;56589;51.992;5.924;2023-11-21T02:37:30;45.40;;;16.73;;
69401;SDS011;56589;51.992;5.924;2023-11-21T02:39:58;52.20;;;15.57;;
69401;SDS011;56589;51.992;5.924;2023-11-21T02:42:24;32.38;;;15.85;;
69401;SDS011;56589;51.992;5.924;2023-11-21T02:44:49;38.95;;;15.73;;
69401;SDS011;56589;51.992;5.924;2023-11-21T02:47:15;38.08;;;15.32;;
69401;SDS011;56589;51.992;5.924;2023-11-21T02:49:41;34.88;;;15.48;;
69401;SDS011;56589;51.992;5.924;2023-11-21T02:52:07;36.13;;;14.38;;
69401;SDS011;56589;51.992;5.924;2023-11-21T02:54:32;35.50;;;14.32;;
69401;SDS011;56589;51.992;5.924;2023-11-21T02:57:01;34.55;;;15.75;;
69401;SDS011;56589;51.992;5.924;2023-11-21T02:59:26;31.88;;;14.48;;
69401;SDS011;56589;51.992;5.924;2023-11-21T03:01:52;36.05;;;14.13;;
69401;SDS011;56589;51.992;5.924;2023-11-21T03:04:18;29.42;;;14.45;;
69401;SDS011;56589;51.992;5.924;2023-11-21T03:06:44;30.35;;;14.35;;
69401;SDS011;56589;51.992;5.924;2023-11-21T03:09:10;30.90;;;14.80;;
69401;SDS011;56589;51.992;5.924;2023-11-21T03:11:36;26.42;;;13.57;;
69401;SDS011;56589;51.992;5.924;2023-11-21T03:14:04;30.58;;;14.68;;
69401;SDS011;56589;51.992;5.924;2023-11-21T03:16:30;28.45;;;13.13;;
69401;SDS011;56589;51.992;5.924;2023-11-21T03:18:57;23.95;;;12.55;;
69401;SDS011;56589;51.992;5.924;2023-11-21T03:21:22;27.67;;;13.23;;
69401;SDS011;56589;51.992;5.924;2023-11-21T03:23:48;25.45;;;13.00;;
69401;SDS011;56589;51.992;5.924;2023-11-21T03:26:14;23.55;;;12.95;;
69401;SDS011;56589;51.992;5.924;2023-11-21T03:28:39;31.77;;;12.70;;
69401;SDS011;56589;51.992;5.924;2023-11-21T03:31:08;29.05;;;12.50;;
69401;SDS011;56589;51.992;5.924;2023-11-21T03:33:37;31.73;;;13.98;;
69401;SDS011;56589;51.992;5.924;2023-11-21T03:36:03;32.22;;;13.07;;
69401;SDS011;56589;51.992;5.924;2023-11-21T03:38:29;29.48;;;14.05;;
69401;SDS011;56589;51.992;5.924;2023-11-21T03:40:55;29.50;;;13.63;;
69401;SDS011;56589;51.992;5.924;2023-11-21T03:43:20;33.47;;;14.55;;
69401;SDS011;56589;51.992;5.924;2023-11-21T03:45:46;29.73;;;14.18;;
69401;SDS011;56589;51.992;5.924;2023-11-21T03:48:15;33.42;;;14.93;;
69401;SDS011;56589;51.992;5.924;2023-11-21T03:50:40;24.60;;;12.93;;
69401;SDS011;56589;51.992;5.924;2023-11-21T03:53:06;32.17;;;14.13;;
69401;SDS011;56589;51.992;5.924;2023-11-21T03:55:32;28.30;;;14.48;;
69401;SDS011;56589;51.992;5.924;2023-11-21T03:57:58;31.35;;;14.80;;
69401;SDS011;56589;51.992;5.924;2023-11-21T04:00:24;28.27;;;13.88;;
69401;SDS011;56589;51.992;5.924;2023-11-21T04:02:50;29.25;;;14.30;;
69401;SDS011;56589;51.992;5.924;2023-11-21T04:05:19;27.45;;;14.77;;
69401;SDS011;56589;51.992;5.924;2023-11-21T04:07:45;30.55;;;15.63;;
69401;SDS011;56589;51.992;5.924;2023-11-21T04:10:11;34.30;;;15.00;;
69401;SDS011;56589;51.992;5.924;2023-11-21T04:12:37;25.10;;;13.30;;
69401;SDS011;56589;51.992;5.924;2023-11-21T04:15:03;26.00;;;13.88;;
69401;SDS011;56589;51.992;5.924;2023-11-21T04:17:30;30.85;;;14.93;;
69401;SDS011;56589;51.992;5.924;2023-11-21T04:19:56;26.58;;;14.10;;
69401;SDS011;56589;51.992;5.924;2023-11-21T04:22:24;24.67;;;13.27;;
69401;SDS011;56589;51.992;5.924;2023-11-21T04:24:50;25.92;;;13.50;;
69401;SDS011;56589;51.992;5.924;2023-11-21T04:27:15;30.88;;;15.07;;
69401;SDS011;56589;51.992;5.924;2023-11-21T04:29:41;27.05;;;14.07;;
69401;SDS011;56589;51.992;5.924;2023-11-21T04:32:07;29.38;;;15.35;;
69401;SDS011;56589;51.992;5.924;2023-11-21T04:34:33;33.22;;;15.45;;
69401;SDS011;56589;51.992;5.924;2023-11-21T04:36:58;27.35;;;14.75;;
69401;SDS011;56589;51.992;5.924;2023-11-21T04:39:27;30.98;;;15.27;;
69401;SDS011;56589;51.992;5.924;2023-11-21T04:41:52;34.55;;;14.60;;
69401;SDS011;56589;51.992;5.924;2023-11-21T04:44:18;32.38;;;13.80;;
69401;SDS011;56589;51.992;5.924;2023-11-21T04:46:44;31.08;;;14.10;;
69401;SDS011;56589;51.992;5.924;2023-11-21T04:49:10;25.48;;;13.43;;
69401;SDS011;56589;51.992;5.924;2023-11-21T04:51:35;24.05;;;13.07;;
69401;SDS011;56589;51.992;5.924;2023-11-21T04:54:01;25.98;;;13.90;;
69401;SDS011;56589;51.992;5.924;2023-11-21T04:56:30;27.92;;;13.93;;
69401;SDS011;56589;51.992;5.924;2023-11-21T04:58:55;25.40;;;14.25;;
69401;SDS011;56589;51.992;5.924;2023-11-21T05:01:21;25.25;;;13.43;;
69401;SDS011;56589;51.992;5.924;2023-11-21T05:03:47;29.23;;;13.77;;
69401;SDS011;56589;51.992;5.924;2023-11-21T05:06:13;23.73;;;12.43;;
69401;SDS011;56589;51.992;5.924;2023-11-21T05:08:38;20.08;;;11.50;;
69401;SDS011;56589;51.992;5.924;2023-11-21T05:11:04;19.75;;;11.85;;
69401;SDS011;56589;51.992;5.924;2023-11-21T05:13:33;19.63;;;10.90;;
69401;SDS011;56589;51.992;5.924;2023-11-21T05:15:59;19.15;;;10.55;;
69401;SDS011;56589;51.992;5.924;2023-11-21T05:18:25;18.00;;;10.50;;
69401;SDS011;56589;51.992;5.924;2023-11-21T05:20:51;19.92;;;10.82;;
69401;SDS011;56589;51.992;5.924;2023-11-21T05:23:17;20.60;;;9.73;;
69401;SDS011;56589;51.992;5.924;2023-11-21T05:25:42;15.52;;;9.30;;
69401;SDS011;56589;51.992;5.924;2023-11-21T05:28:08;14.88;;;9.50;;
69401;SDS011;56589;51.992;5.924;2023-11-21T05:30:36;15.43;;;8.70;;
69401;SDS011;56589;51.992;5.924;2023-11-21T05:33:02;16.15;;;9.77;;
69401;SDS011;56589;51.992;5.924;2023-11-21T05:35:28;15.35;;;9.02;;
69401;SDS011;56589;51.992;5.924;2023-11-21T05:37:54;16.08;;;9.32;;
69401;SDS011;56589;51.992;5.924;2023-11-21T05:40:19;16.10;;;9.40;;
69401;SDS011;56589;51.992;5.924;2023-11-21T05:42:45;15.50;;;9.38;;
69401;SDS011;56589;51.992;5.924;2023-11-21T05:45:11;16.17;;;10.13;;
69401;SDS011;56589;51.992;5.924;2023-11-21T05:47:40;17.35;;;10.35;;
69401;SDS011;56589;51.992;5.924;2023-11-21T05:50:07;17.10;;;10.13;;
69401;SDS011;56589;51.992;5.924;2023-11-21T05:52:34;15.38;;;9.68;;
69401;SDS011;56589;51.992;5.924;2023-11-21T05:55:00;19.75;;;10.50;;
69401;SDS011;56589;51.992;5.924;2023-11-21T05:57:26;16.25;;;10.05;;
69401;SDS011;56589;51.992;5.924;2023-11-21T05:59:52;19.17;;;10.40;;
69401;SDS011;56589;51.992;5.924;2023-11-21T06:02:18;18.90;;;10.18;;
69401;SDS011;56589;51.992;5.924;2023-11-21T06:04:46;19.38;;;10.90;;
69401;SDS011;56589;51.992;5.924;2023-11-21T06:07:12;20.58;;;11.18;;
69401;SDS011;56589;51.992;5.924;2023-11-21T06:09:37;22.10;;;11.40;;
69401;SDS011;56589;51.992;5.924;2023-11-21T06:12:03;15.85;;;10.50;;
69401;SDS011;56589;51.992;5.924;2023-11-21T06:14:30;17.50;;;10.77;;
69401;SDS011;56589;51.992;5.924;2023-11-21T06:16:56;20.83;;;11.93;;
69401;SDS011;56589;51.992;5.924;2023-11-21T06:19:22;22.23;;;10.98;;
69401;SDS011;56589;51.992;5.924;2023-11-21T06:21:50;19.90;;;11.13;;
69401;SDS011;56589;51.992;5.924;2023-11-21T06:24:16;22.95;;;12.00;;
69401;SDS011;56589;51.992;5.924;2023-11-21T06:26:41;20.67;;;11.45;;
69401;SDS011;56589;51.992;5.924;2023-11-21T06:29:07;21.95;;;11.48;;
69401;SDS011;56589;51.992;5.924;2023-11-21T06:31:33;19.05;;;10.95;;
69401;SDS011;56589;51.992;5.924;2023-11-21T06:33:59;22.20;;;10.65;;
69401;SDS011;56589;51.992;5.924;2023-11-21T06:36:24;17.55;;;10.30;;
69401;SDS011;56589;51.992;5.924;2023-11-21T06:38:55;17.55;;;10.57;;
69401;SDS011;56589;51.992;5.924;2023-11-21T06:41:21;19.75;;;10.73;;
69401;SDS011;56589;51.992;5.924;2023-11-21T06:43:46;17.00;;;10.43;;
69401;SDS011;56589;51.992;5.924;2023-11-21T06:46:12;16.27;;;10.02;;
69401;SDS011;56589;51.992;5.924;2023-11-21T06:48:38;18.45;;;10.65;;
69401;SDS011;56589;51.992;5.924;2023-11-21T06:51:04;17.60;;;10.82;;
69401;SDS011;56589;51.992;5.924;2023-11-21T06:53:31;20.38;;;11.15;;
69401;SDS011;56589;51.992;5.924;2023-11-21T06:55:59;18.02;;;10.60;;
69401;SDS011;56589;51.992;5.924;2023-11-21T06:58:25;17.05;;;10.27;;
69401;SDS011;56589;51.992;5.924;2023-11-21T07:00:50;22.67;;;11.10;;
69401;SDS011;56589;51.992;5.924;2023-11-21T07:03:16;22.55;;;10.85;;
69401;SDS011;56589;51.992;5.924;2023-11-21T07:05:42;26.02;;;11.68;;
69401;SDS011;56589;51.992;5.924;2023-11-21T07:08:08;21.42;;;11.25;;
69401;SDS011;56589;51.992;5.924;2023-11-21T07:10:34;25.92;;;11.75;;
69401;SDS011;56589;51.992;5.924;2023-11-21T07:13:03;25.25;;;12.50;;
69401;SDS011;56589;51.992;5.924;2023-11-21T07:15:29;22.70;;;11.48;;
69401;SDS011;56589;51.992;5.924;2023-11-21T07:17:54;28.48;;;12.70;;
69401;SDS011;56589;51.992;5.924;2023-11-21T07:20:20;25.50;;;11.73;;
69401;SDS011;56589;51.992;5.924;2023-11-21T07:22:46;22.30;;;11.93;;
69401;SDS011;56589;51.992;5.924;2023-11-21T07:25:12;24.73;;;12.20;;
69401;SDS011;56589;51.992;5.924;2023-11-21T07:27:38;26.02;;;11.65;;
69401;SDS011;56589;51.992;5.924;2023-11-21T07:30:07;23.08;;;12.75;;
69401;SDS011;56589;51.992;5.924;2023-11-21T07:32:35;25.42;;;12.45;;
69401;SDS011;56589;51.992;5.924;2023-11-21T07:35:01;24.27;;;12.25;;
69401;SDS011;56589;51.992;5.924;2023-11-21T07:37:27;28.67;;;13.43;;
69401;SDS011;56589;51.992;5.924;2023-11-21T07:39:52;26.75;;;13.10;;
69401;SDS011;56589;51.992;5.924;2023-11-21T07:42:18;27.52;;;12.50;;
69401;SDS011;56589;51.992;5.924;2023-11-21T07:44:44;24.80;;;12.55;;
69401;SDS011;56589;51.992;5.924;2023-11-21T07:47:12;24.30;;;12.23;;
69401;SDS011;56589;51.992;5.924;2023-11-21T07:49:38;30.00;;;13.05;;
69401;SDS011;56589;51.992;5.924;2023-11-21T07:52:04;24.83;;;11.88;;
69401;SDS011;56589;51.992;5.924;2023-11-21T07:54:30;26.45;;;12.63;;
69401;SDS011;56589;51.992;5.924;2023-11-21T07:56:55;24.17;;;11.68;;
69401;SDS011;56589;51.992;5.924;2023-11-21T07:59:21;26.98;;;13.07;;
69401;SDS011;56589;51.992;5.924;2023-11-21T08:01:47;26.83;;;12.73;;
69401;SDS011;56589;51.992;5.924;2023-11-21T08:04:15;27.02;;;13.52;;
69401;SDS011;56589;51.992;5.924;2023-11-21T08:06:41;30.85;;;13.52;;
69401;SDS011;56589;51.992;5.924;2023-11-21T08:09:07;24.38;;;12.70;;
69401;SDS011;56589;51.992;5.924;2023-11-21T08:11:33;29.42;;;12.90;;
69401;SDS011;56589;51.992;5.924;2023-11-21T08:13:58;26.40;;;13.20;;
69401;SDS011;56589;51.992;5.924;2023-11-21T08:16:24;28.65;;;13.38;;
69401;SDS011;56589;51.992;5.924;2023-11-21T08:18:50;29.08;;;12.60;;
69401;SDS011;56589;51.992;5.924;2023-11-21T08:21:18;22.63;;;13.23;;
69401;SDS011;56589;51.992;5.924;2023-11-21T08:23:44;33.47;;;14.70;;
69401;SDS011;56589;51.992;5.924;2023-11-21T08:26:10;28.45;;;13.07;;
69401;SDS011;56589;51.992;5.924;2023-11-21T08:28:36;34.65;;;13.68;;
69401;SDS011;56589;51.992;5.924;2023-11-21T08:31:01;26.23;;;13.25;;
69401;SDS011;56589;51.992;5.924;2023-11-21T08:33:27;29.65;;;13.57;;
69401;SDS011;56589;51.992;5.924;2023-11-21T08:35:53;31.77;;;14.50;;
69401;SDS011;56589;51.992;5.924;2023-11-21T08:38:21;26.08;;;13.10;;
69401;SDS011;56589;51.992;5.924;2023-11-21T08:40:47;34.17;;;13.75;;
69401;SDS011;56589;51.992;5.924;2023-11-21T08:43:13;34.63;;;13.65;;
69401;SDS011;56589;51.992;5.924;2023-11-21T08:45:39;30.30;;;14.07;;
69401;SDS011;56589;51.992;5.924;2023-11-21T08:48:05;30.45;;;14.77;;
69401;SDS011;56589;51.992;5.924;2023-11-21T08:50:30;33.00;;;14.40;;
69401;SDS011;56589;51.992;5.924;2023-11-21T08:52:56;28.30;;;14.63;;
69401;SDS011;56589;51.992;5.924;2023-11-21T08:55:25;36.08;;;14.95;;
69401;SDS011;56589;51.992;5.924;2023-11-21T08:57:50;40.15;;;15.00;;
69401;SDS011;56589;51.992;5.924;2023-11-21T09:00:16;30.60;;;14.57;;
69401;SDS011;56589;51.992;5.924;2023-11-21T09:02:42;32.47;;;14.80;;
69401;SDS011;56589;51.992;5.924;2023-11-21T09:05:09;32.75;;;14.18;;
69401;SDS011;56589;51.992;5.924;2023-11-21T09:07:36;31.42;;;15.32;;
69401;SDS011;56589;51.992;5.924;2023-11-21T09:10:04;35.25;;;14.77;;
69401;SDS011;56589;51.992;5.924;2023-11-21T09:12:34;33.30;;;14.93;;
69401;SDS011;56589;51.992;5.924;2023-11-21T09:15:01;26.58;;;15.25;;
69401;SDS011;56589;51.992;5.924;2023-11-21T09:17:27;46.13;;;15.68;;
69401;SDS011;56589;51.992;5.924;2023-11-21T09:19:53;37.63;;;15.05;;
69401;SDS011;56589;51.992;5.924;2023-11-21T09:22:19;35.05;;;15.82;;
69401;SDS011;56589;51.992;5.924;2023-11-21T09:24:44;49.88;;;16.17;;
69401;SDS011;56589;51.992;5.924;2023-11-21T09:27:10;35.05;;;15.35;;
69401;SDS011;56589;51.992;5.924;2023-11-21T09:29:39;36.97;;;18.38;;
69401;SDS011;56589;51.992;5.924;2023-11-21T09:32:05;37.85;;;16.00;;
69401;SDS011;56589;51.992;5.924;2023-11-21T09:34:31;48.63;;;15.90;;
69401;SDS011;56589;51.992;5.924;2023-11-21T09:36:56;34.10;;;14.85;;
69401;SDS011;56589;51.992;5.924;2023-11-21T09:39:22;44.95;;;15.88;;
69401;SDS011;56589;51.992;5.924;2023-11-21T09:41:49;53.78;;;15.57;;
69401;SDS011;56589;51.992;5.924;2023-11-21T09:44:18;44.40;;;15.57;;
69401;SDS011;56589;51.992;5.924;2023-11-21T09:46:58;30.77;;;15.13;;
69401;SDS011;56589;51.992;5.924;2023-11-21T09:49:25;39.83;;;15.20;;
69401;SDS011;56589;51.992;5.924;2023-11-21T09:51:53;45.22;;;14.60;;
69401;SDS011;56589;51.992;5.924;2023-11-21T09:54:20;48.25;;;16.40;;
69401;SDS011;56589;51.992;5.924;2023-11-21T09:56:46;37.75;;;13.70;;
69401;SDS011;56589;51.992;5.924;2023-11-21T09:59:13;29.58;;;14.85;;
69401;SDS011;56589;51.992;5.924;2023-11-21T10:01:41;32.40;;;14.32;;
69401;SDS011;56589;51.992;5.924;2023-11-21T10:04:10;27.83;;;13.68;;
69401;SDS011;56589;51.992;5.924;2023-11-21T10:06:36;25.00;;;13.00;;
69401;SDS011;56589;51.992;5.924;2023-11-21T10:09:04;30.25;;;14.52;;
69401;SDS011;56589;51.992;5.924;2023-11-21T10:11:31;24.50;;;12.48;;
69401;SDS011;56589;51.992;5.924;2023-11-21T10:13:57;19.80;;;11.13;;
69401;SDS011;56589;51.992;5.924;2023-11-21T10:16:26;25.55;;;12.38;;
69401;SDS011;56589;51.992;5.924;2023-11-21T10:18:53;19.80;;;10.82;;
69401;SDS011;56589;51.992;5.924;2023-11-21T10:21:25;19.05;;;10.77;;
69401;SDS011;56589;51.992;5.924;2023-11-21T10:23:51;15.48;;;9.20;;
69401;SDS011;56589;51.992;5.924;2023-11-21T10:26:19;17.88;;;10.18;;
69401;SDS011;56589;51.992;5.924;2023-11-21T10:28:54;15.00;;;9.13;;
69401;SDS011;56589;51.992;5.924;2023-11-21T10:31:24;17.48;;;9.50;;
69401;SDS011;56589;51.992;5.924;2023-11-21T10:33:51;20.00;;;9.98;;
69401;SDS011;56589;51.992;5.924;2023-11-21T10:36:27;15.25;;;8.32;;
69401;SDS011;56589;51.992;5.924;2023-11-21T10:38:54;16.58;;;8.95;;
69401;SDS011;56589;51.992;5.924;2023-11-21T10:41:20;17.45;;;9.50;;
69401;SDS011;56589;51.992;5.924;2023-11-21T10:43:46;15.77;;;8.68;;
69401;SDS011;56589;51.992;5.924;2023-11-21T10:46:12;15.35;;;8.23;;
69401;SDS011;56589;51.992;5.924;2023-11-21T10:48:40;14.10;;;7.97;;
69401;SDS011;56589;51.992;5.924;2023-11-21T10:51:07;14.60;;;9.02;;
69401;SDS011;56589;51.992;5.924;2023-11-21T10:53:36;13.18;;;8.18;;
69401;SDS011;56589;51.992;5.924;2023-11-21T10:56:05;15.30;;;8.50;;
69401;SDS011;56589;51.992;5.924;2023-11-21T10:58:34;15.48;;;8.52;;
69401;SDS011;56589;51.992;5.924;2023-11-21T11:01:04;15.45;;;8.55;;
69401;SDS011;56589;51.992;5.924;2023-11-21T11:03:31;15.82;;;8.73;;
69401;SDS011;56589;51.992;5.924;2023-11-21T11:06:01;13.88;;;8.23;;
69401;SDS011;56589;51.992;5.924;2023-11-21T11:08:28;17.65;;;9.35;;
69401;SDS011;56589;51.992;5.924;2023-11-21T11:10:57;15.27;;;9.25;;
69401;SDS011;56589;51.992;5.924;2023-11-21T11:13:23;17.40;;;10.20;;
69401;SDS011;56589;51.992;5.924;2023-11-21T11:15:49;18.60;;;9.82;;
69401;SDS011;56589;51.992;5.924;2023-11-21T11:18:16;19.65;;;10.43;;
69401;SDS011;56589;51.992;5.924;2023-11-21T11:20:42;21.33;;;10.80;;
69401;SDS011;56589;51.992;5.924;2023-11-21T11:23:17;18.02;;;10.50;;
69401;SDS011;56589;51.992;5.924;2023-11-21T11:26:11;18.73;;;11.23;;
69401;SDS011;56589;51.992;5.924;2023-11-21T11:28:56;17.45;;;9.15;;
69401;SDS011;56589;51.992;5.924;2023-11-21T11:31:49;19.35;;;9.52;;
69401;SDS011;56589;51.992;5.924;2023-11-21T11:34:28;15.00;;;8.00;;
69401;SDS011;56589;51.992;5.924;2023-11-21T11:36:59;15.82;;;8.48;;
69401;SDS011;56589;51.992;5.924;2023-11-21T11:39:28;14.18;;;8.65;;
69401;SDS011;56589;51.992;5.924;2023-11-21T11:41:58;14.70;;;8.85;;
69401;SDS011;56589;51.992;5.924;2023-11-21T11:47:13;13.55;;;7.55;;
69401;SDS011;56589;51.992;5.924;2023-11-21T11:49:54;17.50;;;8.68;;
69401;SDS011;56589;51.992;5.924;2023-11-21T11:52:32;14.45;;;7.97;;
69401;SDS011;56589;51.992;5.924;2023-11-21T11:55:03;13.30;;;7.78;;
69401;SDS011;56589;51.992;5.924;2023-11-21T11:57:34;16.15;;;8.10;;
69401;SDS011;56589;51.992;5.924;2023-11-21T12:00:07;14.65;;;7.47;;
69401;SDS011;56589;51.992;5.924;2023-11-21T12:02:38;12.10;;;7.50;;
69401;SDS011;56589;51.992;5.924;2023-11-21T12:05:07;13.60;;;7.45;;
69401;SDS011;56589;51.992;5.924;2023-11-21T12:07:44;14.48;;;7.32;;
69401;SDS011;56589;51.992;5.924;2023-11-21T12:10:15;17.52;;;7.78;;
69401;SDS011;56589;51.992;5.924;2023-11-21T12:12:47;13.02;;;7.45;;
69401;SDS011;56589;51.992;5.924;2023-11-21T12:15:15;13.18;;;7.18;;
69401;SDS011;56589;51.992;5.924;2023-11-21T12:17:42;11.55;;;6.40;;
69401;SDS011;56589;51.992;5.924;2023-11-21T12:20:10;11.45;;;6.72;;
69401;SDS011;56589;51.992;5.924;2023-11-21T12:22:37;12.73;;;7.35;;
69401;SDS011;56589;51.992;5.924;2023-11-21T12:25:04;18.25;;;9.10;;
69401;SDS011;56589;51.992;5.924;2023-11-21T12:27:30;20.90;;;10.10;;
69401;SDS011;56589;51.992;5.924;2023-11-21T12:29:58;19.10;;;9.73;;
69401;SDS011;56589;51.992;5.924;2023-11-21T12:32:24;20.98;;;9.05;;
69401;SDS011;56589;51.992;5.924;2023-11-21T12:34:50;16.95;;;9.52;;
69401;SDS011;56589;51.992;5.924;2023-11-21T12:37:16;16.02;;;8.35;;
69401;SDS011;56589;51.992;5.924;2023-11-21T12:39:42;19.75;;;9.68;;
69401;SDS011;56589;51.992;5.924;2023-11-21T12:42:08;15.30;;;8.05;;
69401;SDS011;56589;51.992;5.924;2023-11-21T12:44:34;15.55;;;8.15;;
69401;SDS011;56589;51.992;5.924;2023-11-21T12:47:03;16.75;;;8.88;;
69401;SDS011;56589;51.992;5.924;2023-11-21T12:49:29;17.88;;;9.18;;
69401;SDS011;56589;51.992;5.924;2023-11-21T12:51:54;15.80;;;9.55;;
69401;SDS011;56589;51.992;5.924;2023-11-21T12:54:21;20.70;;;9.77;;
69401;SDS011;56589;51.992;5.924;2023-11-21T12:56:47;22.75;;;11.27;;
69401;SDS011;56589;51.992;5.924;2023-11-21T12:59:12;21.27;;;10.27;;
69401;SDS011;56589;51.992;5.924;2023-11-21T13:01:41;19.85;;;11.48;;
69401;SDS011;56589;51.992;5.924;2023-11-21T13:04:09;18.85;;;11.10;;
69401;SDS011;56589;51.992;5.924;2023-11-21T13:06:35;22.55;;;11.80;;
69401;SDS011;56589;51.992;5.924;2023-11-21T13:09:01;22.52;;;11.63;;
69401;SDS011;56589;51.992;5.924;2023-11-21T13:11:28;24.05;;;12.27;;
69401;SDS011;56589;51.992;5.924;2023-11-21T13:13:53;26.35;;;12.57;;
69401;SDS011;56589;51.992;5.924;2023-11-21T13:16:19;25.27;;;13.93;;
69401;SDS011;56589;51.992;5.924;2023-11-21T13:18:45;28.58;;;12.98;;
69401;SDS011;56589;51.992;5.924;2023-11-21T13:21:13;24.98;;;12.20;;
69401;SDS011;56589;51.992;5.924;2023-11-21T13:23:39;20.35;;;12.02;;
69401;SDS011;56589;51.992;5.924;2023-11-21T13:26:07;23.45;;;11.20;;
69401;SDS011;56589;51.992;5.924;2023-11-21T13:28:33;20.27;;;11.00;;
69401;SDS011;56589;51.992;5.924;2023-11-21T13:31:00;24.17;;;13.02;;
69401;SDS011;56589;51.992;5.924;2023-11-21T13:33:27;21.10;;;10.43;;
69401;SDS011;56589;51.992;5.924;2023-11-21T13:35:52;24.75;;;11.95;;
69401;SDS011;56589;51.992;5.924;2023-11-21T13:38:21;24.10;;;11.18;;
69401;SDS011;56589;51.992;5.924;2023-11-21T13:40:48;22.17;;;10.52;;
69401;SDS011;56589;51.992;5.924;2023-11-21T13:43:16;17.90;;;10.18;;
69401;SDS011;56589;51.992;5.924;2023-11-21T13:45:43;19.52;;;9.95;;
69401;SDS011;56589;51.992;5.924;2023-11-21T13:48:10;19.80;;;10.55;;
69401;SDS011;56589;51.992;5.924;2023-11-21T13:50:37;17.42;;;9.95;;
69401;SDS011;56589;51.992;5.924;2023-11-21T13:53:03;18.05;;;9.95;;
69401;SDS011;56589;51.992;5.924;2023-11-21T13:55:32;21.70;;;10.48;;
69401;SDS011;56589;51.992;5.924;2023-11-21T13:57:57;17.10;;;8.38;;
69401;SDS011;56589;51.992;5.924;2023-11-21T14:00:23;15.43;;;7.90;;
69401;SDS011;56589;51.992;5.924;2023-11-21T14:02:49;18.42;;;8.90;;
69401;SDS011;56589;51.992;5.924;2023-11-21T14:05:15;19.17;;;8.68;;
69401;SDS011;56589;51.992;5.924;2023-11-21T14:07:42;17.05;;;7.88;;
69401;SDS011;56589;51.992;5.924;2023-11-21T14:10:08;18.13;;;8.50;;
69401;SDS011;56589;51.992;5.924;2023-11-21T14:12:36;19.02;;;7.93;;
69401;SDS011;56589;51.992;5.924;2023-11-21T14:15:02;15.73;;;8.05;;
69401;SDS011;56589;51.992;5.924;2023-11-21T14:17:29;17.73;;;7.32;;
69401;SDS011;56589;51.992;5.924;2023-11-21T14:19:55;12.77;;;7.43;;
69401;SDS011;56589;51.992;5.924;2023-11-21T14:22:21;16.73;;;7.63;;
69401;SDS011;56589;51.992;5.924;2023-11-21T14:24:46;15.63;;;7.88;;